createdAt,value
2019-03-16T00:00:00.116Z,2.07
2019-03-16T00:02:29.148Z,2.43
2019-03-16T00:04:58.203Z,2.50
2019-03-16T00:07:32.968Z,2.17
2019-03-16T00:09:57.865Z,1.87
2019-03-16T00:12:27.028Z,1.80
2019-03-16T00:14:56.015Z,2.77
2019-03-16T00:17:25.138Z,2.10
2019-03-16T00:19:54.194Z,2.83
2019-03-16T00:22:23.301Z,1.60
2019-03-16T00:24:52.399Z,2.40
2019-03-16T00:27:21.314Z,2.27
2019-03-16T00:29:50.382Z,2.20
2019-03-16T00:32:19.435Z,2.67
2019-03-16T00:34:48.550Z,2.63
2019-03-16T00:37:17.535Z,2.53
2019-03-16T00:39:46.512Z,1.87
2019-03-16T00:42:16.544Z,2.43
2019-03-16T00:44:46.949Z,2.33
2019-03-16T00:47:16.016Z,2.30
2019-03-16T00:49:50.293Z,2.13
2019-03-16T00:52:19.235Z,2.50
2019-03-16T00:54:48.761Z,1.73
2019-03-16T00:57:18.867Z,2.67
2019-03-16T00:59:48.214Z,2.60
2019-03-16T01:02:26.980Z,2.37
2019-03-16T01:04:49.107Z,2.43
2019-03-16T01:07:18.185Z,2.50
2019-03-16T01:09:47.300Z,2.40
2019-03-16T01:12:17.925Z,1.77
2019-03-16T01:14:46.902Z,1.73
2019-03-16T01:17:15.879Z,2.17
2019-03-16T01:19:45.011Z,1.70
2019-03-16T01:22:14.351Z,2.20
2019-03-16T01:24:45.934Z,2.10
2019-03-16T01:27:18.255Z,1.87
2019-03-16T01:29:49.179Z,1.77
2019-03-16T01:32:18.367Z,2.60
2019-03-16T01:34:47.337Z,2.77
2019-03-16T01:37:16.327Z,2.33
2019-03-16T01:39:45.363Z,1.80
2019-03-16T01:42:14.381Z,2.07
2019-03-16T01:44:43.319Z,2.63
2019-03-16T01:47:12.366Z,1.90
2019-03-16T01:49:41.337Z,1.60
2019-03-16T01:52:10.419Z,2.57
2019-03-16T01:54:39.530Z,1.60
2019-03-16T01:57:08.599Z,2.20
2019-03-16T01:59:37.640Z,2.33
2019-03-16T02:02:06.833Z,2.00
2019-03-16T02:04:36.594Z,1.87
2019-03-16T02:07:08.623Z,2.77
2019-03-16T02:09:37.519Z,2.03
2019-03-16T02:12:06.611Z,3.23
2019-03-16T02:14:35.675Z,2.10
2019-03-16T02:17:04.780Z,1.83
2019-03-16T02:19:36.001Z,2.23
2019-03-16T02:22:04.658Z,2.13
2019-03-16T02:24:33.829Z,2.50
2019-03-16T02:27:02.889Z,2.03
2019-03-16T02:29:31.855Z,2.00
2019-03-16T02:32:00.935Z,2.47
2019-03-16T02:34:30.001Z,3.23
2019-03-16T02:36:58.928Z,3.03
2019-03-16T02:39:27.847Z,2.60
2019-03-16T02:41:56.841Z,1.57
2019-03-16T02:44:25.872Z,2.20
2019-03-16T02:46:55.015Z,1.33
2019-03-16T02:49:24.111Z,1.90
2019-03-16T02:51:53.262Z,2.13
2019-03-16T02:54:22.296Z,2.10
2019-03-16T02:56:51.292Z,1.70
2019-03-16T02:59:20.293Z,3.47
2019-03-16T03:01:49.619Z,2.13
2019-03-16T03:04:18.576Z,1.97
2019-03-16T03:06:47.527Z,2.60
2019-03-16T03:09:16.526Z,2.50
2019-03-16T03:11:45.511Z,2.23
2019-03-16T03:14:14.456Z,2.63
2019-03-16T03:16:43.506Z,2.77
2019-03-16T03:19:12.660Z,1.83
2019-03-16T03:21:41.697Z,2.03
2019-03-16T03:24:10.786Z,3.37
2019-03-16T03:26:39.731Z,2.37
2019-03-16T03:29:08.863Z,1.93
2019-03-16T03:31:37.859Z,2.07
2019-03-16T03:34:06.856Z,2.03
2019-03-16T03:36:35.890Z,2.70
2019-03-16T03:39:07.003Z,1.90
2019-03-16T03:41:36.469Z,1.90
2019-03-16T03:44:05.603Z,1.83
2019-03-16T03:46:34.579Z,1.97
2019-03-16T03:49:03.772Z,2.43
2019-03-16T03:51:33.777Z,2.13
2019-03-16T03:54:02.828Z,1.67
2019-03-16T03:56:31.890Z,2.40
2019-03-16T03:59:00.887Z,1.67
2019-03-16T04:01:30.253Z,2.23
2019-03-16T04:04:14.034Z,2.70
2019-03-16T04:06:30.473Z,1.80
2019-03-16T04:09:00.101Z,2.17
2019-03-16T04:11:30.077Z,1.40
2019-03-16T04:13:59.101Z,1.50
2019-03-16T04:16:28.133Z,1.90
2019-03-16T04:18:57.376Z,2.10
2019-03-16T04:21:26.324Z,2.27
2019-03-16T04:23:55.352Z,1.23
2019-03-16T04:26:24.332Z,2.57
2019-03-16T04:28:54.636Z,2.10
2019-03-16T04:31:23.680Z,1.50
2019-03-16T04:33:53.598Z,2.33
2019-03-16T04:36:23.191Z,2.53
2019-03-16T04:38:54.658Z,1.90
2019-03-16T04:41:23.749Z,1.50
2019-03-16T04:43:52.829Z,1.57
2019-03-16T04:46:22.168Z,2.03
2019-03-16T04:48:51.568Z,1.50
2019-03-16T04:51:20.878Z,1.70
2019-03-16T04:53:50.576Z,2.13
2019-03-16T04:56:19.661Z,1.33
2019-03-16T04:58:51.778Z,3.03
2019-03-16T05:01:21.123Z,1.67
2019-03-16T05:03:50.141Z,2.50
2019-03-16T05:06:19.209Z,2.20
2019-03-16T05:08:48.106Z,2.27
2019-03-16T05:11:17.065Z,1.97
2019-03-16T05:13:45.943Z,1.20
2019-03-16T05:16:16.135Z,2.80
2019-03-16T05:18:45.147Z,1.97
2019-03-16T05:21:14.247Z,2.47
2019-03-16T05:23:43.216Z,2.27
2019-03-16T05:26:12.235Z,2.53
2019-03-16T05:28:41.172Z,2.20
2019-03-16T05:31:10.278Z,1.93
2019-03-16T05:33:39.271Z,2.37
2019-03-16T05:36:08.277Z,2.47
2019-03-16T05:38:37.243Z,2.90
2019-03-16T05:41:06.350Z,2.43
2019-03-16T05:43:35.387Z,1.60
2019-03-16T05:46:04.385Z,1.67
2019-03-16T05:48:33.451Z,1.93
2019-03-16T05:51:02.524Z,2.03
2019-03-16T05:53:31.702Z,2.97
2019-03-16T05:56:00.739Z,2.70
2019-03-16T05:58:29.755Z,2.60
2019-03-16T06:00:58.922Z,2.43
2019-03-16T06:03:27.962Z,2.07
2019-03-16T06:05:57.102Z,2.23
2019-03-16T06:08:26.156Z,1.47
2019-03-16T06:10:55.291Z,2.33
2019-03-16T06:13:24.242Z,2.33
2019-03-16T06:15:53.221Z,2.27
2019-03-16T06:18:22.229Z,2.10
2019-03-16T06:20:51.322Z,2.30
2019-03-16T06:23:20.355Z,2.00
2019-03-16T06:25:49.389Z,2.37
2019-03-16T06:28:18.508Z,2.43
2019-03-16T06:30:47.479Z,2.07
2019-03-16T06:33:16.451Z,1.80
2019-03-16T06:35:48.304Z,1.77
2019-03-16T06:38:17.276Z,2.50
2019-03-16T06:40:46.346Z,2.23
2019-03-16T06:43:15.309Z,2.33
2019-03-16T06:45:44.413Z,1.63
2019-03-16T06:48:13.364Z,1.63
2019-03-16T06:50:42.519Z,2.87
2019-03-16T06:53:11.548Z,2.00
2019-03-16T06:55:40.480Z,2.20
2019-03-16T06:58:09.547Z,1.87
2019-03-16T07:00:38.567Z,1.90
2019-03-16T07:03:07.634Z,2.33
2019-03-16T07:05:38.822Z,1.77
2019-03-16T07:08:07.552Z,1.90
2019-03-16T07:10:36.665Z,1.70
2019-03-16T07:13:05.719Z,1.83
2019-03-16T07:15:34.895Z,1.23
2019-03-16T07:18:03.953Z,1.27
2019-03-16T07:20:33.044Z,1.63
2019-03-16T07:23:03.222Z,1.40
2019-03-16T07:25:32.308Z,1.40
2019-03-16T07:28:01.354Z,1.73
2019-03-16T07:30:30.448Z,2.00
2019-03-16T07:32:59.394Z,1.23
2019-03-16T07:35:28.536Z,1.77
2019-03-16T07:37:57.532Z,1.67
2019-03-16T07:40:26.527Z,1.63
2019-03-16T07:42:55.581Z,2.17
2019-03-16T07:45:24.715Z,0.90
2019-03-16T07:47:53.610Z,1.10
2019-03-16T07:50:22.602Z,1.57
2019-03-16T07:52:51.635Z,2.13
2019-03-16T07:55:20.652Z,1.30
2019-03-16T07:57:49.618Z,1.17
2019-03-16T08:00:18.761Z,1.03
2019-03-16T08:02:47.760Z,1.80
2019-03-16T08:05:19.226Z,1.57
2019-03-16T08:07:47.458Z,1.70
2019-03-16T08:10:16.544Z,1.30
2019-03-16T08:12:45.528Z,1.83
2019-03-16T08:15:14.862Z,1.27
2019-03-16T08:17:44.114Z,2.00
2019-03-16T08:20:13.507Z,1.40
2019-03-16T08:22:42.408Z,2.00
2019-03-16T08:25:15.381Z,1.20
2019-03-16T08:27:53.890Z,2.13
2019-03-16T08:30:15.274Z,1.43
2019-03-16T08:32:47.786Z,1.50
2019-03-16T08:35:18.314Z,1.10
2019-03-16T08:37:47.343Z,1.00
2019-03-16T08:40:16.591Z,1.37
2019-03-16T08:42:45.711Z,1.87
2019-03-16T08:45:25.138Z,1.30
2019-03-16T08:47:54.288Z,1.00
2019-03-16T08:50:23.659Z,1.00
2019-03-16T08:52:54.934Z,1.77
2019-03-16T08:55:23.972Z,1.27
2019-03-16T08:58:05.318Z,1.33
2019-03-16T09:00:23.892Z,1.67
2019-03-16T09:02:52.907Z,1.07
2019-03-16T09:05:23.456Z,1.30
2019-03-16T09:07:55.400Z,2.00
2019-03-16T09:10:24.603Z,1.50
2019-03-16T09:12:55.530Z,2.27
2019-03-16T09:15:26.336Z,1.67
2019-03-16T09:17:56.081Z,1.57
2019-03-16T09:20:25.141Z,1.00
2019-03-16T09:22:54.308Z,1.20
2019-03-16T09:25:25.050Z,1.73
2019-03-16T09:27:54.151Z,1.63
2019-03-16T09:30:24.617Z,1.23
2019-03-16T09:32:53.913Z,1.90
2019-03-16T09:35:23.729Z,1.67
2019-03-16T09:37:53.251Z,1.30
2019-03-16T09:40:22.169Z,1.27
2019-03-16T09:42:51.206Z,1.93
2019-03-16T09:45:20.815Z,1.90
2019-03-16T09:47:49.951Z,1.77
2019-03-16T09:50:19.062Z,1.33
2019-03-16T09:52:48.078Z,1.70
2019-03-16T09:55:17.235Z,1.50
2019-03-16T09:57:46.144Z,1.30
2019-03-16T10:00:15.218Z,1.67
2019-03-16T10:02:44.255Z,1.50
2019-03-16T10:05:13.483Z,1.73
2019-03-16T10:07:42.612Z,1.30
2019-03-16T10:10:11.729Z,2.13
2019-03-16T10:12:40.699Z,1.70
2019-03-16T10:15:10.183Z,1.33
2019-03-16T10:17:39.173Z,1.37
2019-03-16T10:20:08.375Z,1.40
2019-03-16T10:22:37.550Z,1.70
2019-03-16T10:25:06.756Z,1.60
2019-03-16T10:27:35.741Z,2.03
2019-03-16T10:30:05.848Z,1.67
2019-03-16T10:32:34.880Z,2.03
2019-03-16T10:35:04.024Z,1.70
2019-03-16T10:37:35.278Z,1.47
2019-03-16T10:40:05.012Z,1.53
2019-03-16T10:42:35.876Z,1.90
2019-03-16T10:45:05.601Z,2.13
2019-03-16T10:47:34.674Z,1.83
2019-03-16T10:50:04.741Z,1.80
2019-03-16T10:52:36.699Z,2.00
2019-03-16T10:55:06.386Z,1.63
2019-03-16T10:57:35.598Z,1.90
2019-03-16T11:00:05.382Z,1.77
2019-03-16T11:02:34.389Z,1.73
2019-03-16T11:05:03.488Z,2.60
2019-03-16T11:07:32.535Z,2.00
2019-03-16T11:10:01.674Z,1.60
2019-03-16T11:12:30.684Z,2.10
2019-03-16T11:14:59.683Z,2.03
2019-03-16T11:17:28.771Z,1.87
2019-03-16T11:19:57.835Z,1.70
2019-03-16T11:22:26.944Z,1.80
2019-03-16T11:24:55.991Z,2.30
2019-03-16T11:27:24.992Z,3.13
2019-03-16T11:29:54.003Z,2.27
2019-03-16T11:32:23.200Z,2.53
2019-03-16T11:34:52.265Z,2.87
2019-03-16T11:37:21.242Z,1.97
2019-03-16T11:39:50.181Z,2.70
2019-03-16T11:42:19.317Z,2.80
2019-03-16T11:44:48.420Z,3.13
2019-03-16T11:47:17.444Z,2.90
2019-03-16T11:49:46.770Z,3.67
2019-03-16T11:52:15.643Z,2.73
2019-03-16T11:54:44.607Z,2.80
2019-03-16T11:57:14.055Z,2.97
2019-03-16T11:59:43.095Z,2.40
2019-03-16T12:02:12.218Z,2.90
2019-03-16T12:04:41.388Z,3.03
2019-03-16T12:07:10.551Z,3.63
2019-03-16T12:09:39.649Z,3.07
2019-03-16T12:12:08.876Z,2.90
2019-03-16T12:14:40.273Z,3.77
2019-03-16T12:17:09.211Z,3.67
2019-03-16T12:19:38.299Z,3.07
2019-03-16T12:22:07.333Z,3.17
2019-03-16T12:24:36.396Z,3.23
2019-03-16T12:27:05.495Z,3.30
2019-03-16T12:29:34.601Z,2.90
2019-03-16T12:32:03.633Z,3.50
2019-03-16T12:34:32.684Z,3.77
2019-03-16T12:37:01.680Z,4.10
2019-03-16T12:39:30.732Z,3.90
2019-03-16T12:41:59.792Z,4.33
2019-03-16T12:44:28.971Z,3.73
2019-03-16T12:46:58.051Z,4.40
2019-03-16T12:49:27.214Z,4.03
2019-03-16T12:51:56.354Z,3.83
2019-03-16T12:54:25.448Z,3.87
2019-03-16T12:56:54.408Z,4.17
2019-03-16T12:59:24.344Z,5.23
2019-03-16T13:01:53.525Z,4.63
2019-03-16T13:04:22.948Z,6.27
2019-03-16T13:06:52.028Z,4.23
2019-03-16T13:09:21.462Z,4.43
2019-03-16T13:11:50.950Z,5.30
2019-03-16T13:14:19.958Z,6.17
2019-03-16T13:16:49.359Z,5.17
2019-03-16T13:19:18.523Z,5.90
2019-03-16T13:21:47.914Z,5.73
2019-03-16T13:24:17.141Z,5.90
2019-03-16T13:26:46.835Z,5.83
2019-03-16T13:29:16.033Z,5.50
2019-03-16T13:31:45.148Z,5.17
2019-03-16T13:34:14.219Z,5.87
2019-03-16T13:36:43.568Z,5.20
2019-03-16T13:39:12.698Z,5.00
2019-03-16T13:41:41.717Z,4.10
2019-03-16T13:44:10.802Z,4.73
2019-03-16T13:46:40.338Z,4.40
2019-03-16T13:49:09.403Z,3.87
2019-03-16T13:51:38.611Z,4.40
2019-03-16T13:54:07.743Z,4.47
2019-03-16T13:56:37.559Z,4.30
2019-03-16T13:59:06.599Z,4.13
2019-03-16T14:01:35.829Z,4.03
2019-03-16T14:04:05.131Z,3.57
2019-03-16T14:06:34.157Z,4.13
2019-03-16T14:09:04.021Z,3.13
2019-03-16T14:11:33.051Z,3.80
2019-03-16T14:14:02.106Z,3.33
2019-03-16T14:16:31.320Z,2.97
2019-03-16T14:19:02.204Z,3.20
2019-03-16T14:21:33.162Z,3.37
2019-03-16T14:24:02.343Z,4.83
2019-03-16T14:26:32.062Z,3.87
2019-03-16T14:29:01.913Z,4.17
2019-03-16T14:31:32.165Z,4.03
2019-03-16T14:34:04.239Z,3.63
2019-03-16T14:36:35.627Z,2.83
2019-03-16T14:39:08.457Z,4.03
2019-03-16T14:41:37.850Z,3.67
2019-03-16T14:44:07.075Z,4.27
2019-03-16T14:46:36.513Z,3.37
2019-03-16T14:49:08.615Z,4.03
2019-03-16T14:51:37.680Z,3.07
2019-03-16T14:54:06.765Z,3.40
2019-03-16T14:56:35.749Z,2.63
2019-03-16T14:59:04.770Z,3.13
2019-03-16T15:01:34.070Z,3.13
2019-03-16T15:04:03.127Z,3.87
2019-03-16T15:06:32.197Z,3.60
2019-03-16T15:09:01.488Z,3.20
2019-03-16T15:11:30.548Z,2.93
2019-03-16T15:13:59.632Z,3.13
2019-03-16T15:16:28.840Z,3.20
2019-03-16T15:18:57.928Z,3.70
2019-03-16T15:21:27.555Z,3.33
2019-03-16T15:23:56.436Z,3.10
2019-03-16T15:26:25.632Z,3.80
2019-03-16T15:28:55.418Z,3.17
2019-03-16T15:31:24.569Z,2.87
2019-03-16T15:33:53.624Z,3.37
2019-03-16T15:36:22.610Z,3.10
2019-03-16T15:38:51.585Z,2.77
2019-03-16T15:41:20.926Z,2.47
2019-03-16T15:43:49.840Z,2.57
2019-03-16T15:46:18.853Z,2.43
2019-03-16T15:48:48.031Z,3.37
2019-03-16T15:51:16.956Z,2.60
2019-03-16T15:53:46.011Z,2.77
2019-03-16T15:56:15.015Z,3.30
2019-03-16T15:58:43.988Z,3.17
2019-03-16T16:01:13.132Z,3.17
2019-03-16T16:03:42.152Z,3.30
2019-03-16T16:06:11.289Z,3.13
2019-03-16T16:08:40.383Z,4.07
2019-03-16T16:11:09.428Z,2.77
2019-03-16T16:13:39.046Z,2.87
2019-03-16T16:16:11.080Z,2.93
2019-03-16T16:18:40.132Z,2.43
2019-03-16T16:21:09.202Z,2.73
2019-03-16T16:23:38.270Z,2.30
2019-03-16T16:26:07.413Z,2.93
2019-03-16T16:28:36.532Z,2.80
2019-03-16T16:31:16.173Z,3.73
2019-03-16T16:33:39.010Z,2.77
2019-03-16T16:36:08.626Z,3.30
2019-03-16T16:38:37.667Z,2.77
2019-03-16T16:41:06.864Z,3.30
2019-03-16T16:43:36.159Z,2.60
2019-03-16T16:46:05.309Z,2.97
2019-03-16T16:48:34.883Z,2.30
2019-03-16T16:51:04.029Z,2.27
2019-03-16T16:53:33.059Z,2.67
2019-03-16T16:56:02.132Z,2.13
2019-03-16T16:58:31.405Z,2.30
2019-03-16T17:01:00.572Z,1.73
2019-03-16T17:03:30.575Z,1.80
2019-03-16T17:06:00.142Z,2.33
2019-03-16T17:08:29.966Z,2.07
2019-03-16T17:10:59.078Z,2.30
2019-03-16T17:13:28.417Z,2.23
2019-03-16T17:15:58.231Z,2.10
2019-03-16T17:18:27.160Z,2.27
2019-03-16T17:20:57.039Z,1.90
2019-03-16T17:23:27.190Z,2.13
2019-03-16T17:25:56.252Z,2.03
2019-03-16T17:28:25.259Z,2.20
2019-03-16T17:30:55.944Z,1.90
2019-03-16T17:33:25.138Z,1.73
2019-03-16T17:35:54.322Z,1.60
2019-03-16T17:38:23.423Z,2.20
2019-03-16T17:40:53.148Z,1.67
2019-03-16T17:43:22.171Z,1.67
2019-03-16T17:45:53.230Z,1.50
2019-03-16T17:48:22.505Z,1.63
2019-03-16T17:50:56.497Z,1.60
2019-03-16T17:53:25.526Z,1.70
2019-03-16T17:55:54.673Z,2.17
2019-03-16T17:58:23.796Z,1.77
2019-03-16T18:00:52.995Z,1.67
2019-03-16T18:03:22.045Z,2.07
2019-03-16T18:05:51.060Z,1.53
2019-03-16T18:08:22.315Z,2.07
2019-03-16T18:10:51.414Z,2.00
2019-03-16T18:13:20.441Z,1.60
2019-03-16T18:15:49.648Z,2.33
2019-03-16T18:18:18.812Z,1.77
2019-03-16T18:20:47.816Z,1.70
2019-03-16T18:23:17.024Z,1.90
2019-03-16T18:25:46.819Z,2.10
2019-03-16T18:28:16.385Z,1.83
2019-03-16T18:30:45.372Z,1.47
2019-03-16T18:33:14.504Z,1.87
2019-03-16T18:35:43.611Z,1.60
2019-03-16T18:38:12.751Z,1.40
2019-03-16T18:40:41.854Z,1.57
2019-03-16T18:43:10.756Z,2.23
2019-03-16T18:45:39.731Z,1.83
2019-03-16T18:48:08.732Z,2.17
2019-03-16T18:50:37.803Z,2.60
2019-03-16T18:53:06.824Z,2.03
2019-03-16T18:55:35.854Z,1.80
2019-03-16T18:58:05.034Z,1.93
2019-03-16T19:00:34.121Z,2.10
2019-03-16T19:03:03.610Z,1.90
2019-03-16T19:05:32.743Z,1.80
2019-03-16T19:08:01.735Z,2.00
2019-03-16T19:10:30.803Z,2.27
2019-03-16T19:13:01.011Z,1.93
2019-03-16T19:15:30.116Z,1.90
2019-03-16T19:17:59.552Z,1.90
2019-03-16T19:20:28.686Z,2.00
2019-03-16T19:22:57.966Z,2.53
2019-03-16T19:25:27.089Z,2.70
2019-03-16T19:27:56.096Z,2.10
2019-03-16T19:30:26.762Z,1.73
2019-03-16T19:32:55.924Z,2.03
2019-03-16T19:35:26.400Z,3.30
2019-03-16T19:37:59.159Z,2.87
2019-03-16T19:40:28.700Z,2.17
2019-03-16T19:42:57.782Z,2.50
2019-03-16T19:45:27.021Z,2.17
2019-03-16T19:47:56.111Z,1.97
2019-03-16T19:50:25.047Z,2.40
2019-03-16T19:52:54.120Z,3.00
2019-03-16T19:55:23.172Z,2.40
2019-03-16T19:57:52.315Z,1.97
2019-03-16T20:00:21.672Z,1.70
2019-03-16T20:02:51.797Z,2.03
2019-03-16T20:05:21.047Z,2.00
2019-03-16T20:07:50.186Z,2.10
2019-03-16T20:10:20.793Z,2.33
2019-03-16T20:12:52.882Z,2.10
2019-03-16T20:15:21.958Z,1.80
2019-03-16T20:17:51.162Z,2.20
2019-03-16T20:20:20.326Z,2.00
2019-03-16T20:22:49.747Z,2.33
2019-03-16T20:25:18.771Z,2.20
2019-03-16T20:27:48.899Z,1.47
2019-03-16T20:30:26.593Z,3.10
2019-03-16T20:33:02.616Z,2.17
2019-03-16T20:35:19.898Z,1.90
2019-03-16T20:37:48.978Z,1.90
2019-03-16T20:40:18.079Z,2.30
2019-03-16T20:42:58.822Z,2.67
2019-03-16T20:45:29.000Z,2.10
2019-03-16T20:47:58.195Z,2.17
2019-03-16T20:50:27.463Z,2.23
2019-03-16T20:52:56.700Z,2.80
2019-03-16T20:55:25.910Z,2.50
2019-03-16T20:57:55.053Z,3.00
2019-03-16T21:00:24.195Z,2.73
2019-03-16T21:02:53.243Z,2.90
2019-03-16T21:05:22.284Z,2.40
2019-03-16T21:07:51.460Z,2.70
2019-03-16T21:10:20.654Z,2.33
2019-03-16T21:12:49.868Z,2.87
2019-03-16T21:15:19.052Z,2.73
2019-03-16T21:17:48.123Z,2.50
2019-03-16T21:20:17.141Z,2.47
2019-03-16T21:22:46.476Z,2.67
2019-03-16T21:25:15.767Z,2.10
2019-03-16T21:27:44.925Z,2.60
2019-03-16T21:30:15.212Z,2.83
2019-03-16T21:32:44.477Z,2.77
2019-03-16T21:35:13.945Z,2.33
2019-03-16T21:37:43.068Z,2.13
2019-03-16T21:40:12.320Z,2.20
2019-03-16T21:42:41.482Z,2.20
2019-03-16T21:45:10.674Z,2.30
2019-03-16T21:47:39.827Z,2.20
2019-03-16T21:50:09.487Z,3.00
2019-03-16T21:52:38.641Z,2.20
2019-03-16T21:55:08.190Z,2.80
2019-03-16T21:57:37.242Z,1.83
2019-03-16T22:00:08.264Z,2.57
2019-03-16T22:02:37.254Z,2.30
2019-03-16T22:05:06.635Z,1.87
2019-03-16T22:07:35.799Z,2.27
2019-03-16T22:10:05.539Z,2.33
2019-03-16T22:12:34.526Z,1.83
2019-03-16T22:15:03.678Z,2.30
2019-03-16T22:17:32.669Z,2.20
2019-03-16T22:20:01.748Z,2.37
2019-03-16T22:22:30.815Z,2.73
2019-03-16T22:24:59.855Z,2.30
2019-03-16T22:27:28.844Z,2.63
2019-03-16T22:29:57.837Z,2.80
2019-03-16T22:32:26.923Z,2.40
2019-03-16T22:34:56.027Z,2.60
2019-03-16T22:37:26.508Z,3.03
2019-03-16T22:39:56.231Z,2.97
2019-03-16T22:42:25.317Z,2.47
2019-03-16T22:44:54.471Z,2.77
2019-03-16T22:47:23.602Z,2.83
2019-03-16T22:49:52.656Z,2.53
2019-03-16T22:52:21.913Z,2.40
2019-03-16T22:54:51.488Z,2.87
2019-03-16T22:57:20.597Z,3.57
2019-03-16T22:59:49.923Z,3.60
2019-03-16T23:02:19.365Z,3.10
2019-03-16T23:04:48.763Z,2.97
2019-03-16T23:07:19.216Z,3.50
2019-03-16T23:09:48.404Z,3.00
2019-03-16T23:12:17.551Z,4.20
2019-03-16T23:14:46.728Z,3.63
2019-03-16T23:17:16.193Z,4.23
2019-03-16T23:19:45.162Z,3.57
2019-03-16T23:22:14.443Z,3.30
2019-03-16T23:24:43.394Z,3.30
2019-03-16T23:27:12.428Z,3.80
2019-03-16T23:29:41.512Z,3.10
2019-03-16T23:32:10.623Z,3.67
2019-03-16T23:34:39.660Z,3.43
2019-03-16T23:37:08.855Z,3.57
2019-03-16T23:39:38.138Z,3.67
2019-03-16T23:42:07.442Z,3.67
2019-03-16T23:44:36.567Z,3.77
2019-03-16T23:47:05.989Z,3.40
2019-03-16T23:49:35.207Z,3.60
2019-03-16T23:52:05.507Z,3.47
2019-03-16T23:54:34.567Z,3.77
2019-03-16T23:57:04.376Z,3.53
2019-03-16T23:59:33.515Z,4.43
